Aviation Digital Data Service (ADDS)

Output produced by TAFs form (1615 UTC 22 September 2014)
found at http://aviationweather.gov/adds/tafs/
 
KASE 221406Z 2214/2312 VRB03KT P6SM VCSH FEW004 SCT020 BKN070 
     TEMPO 2214/2216 5SM BR BKN004 
     FM221600 VRB05KT P6SM VCSH SCT015 SCT050 BKN080 
     FM221900 36005KT P6SM VCTS SCT080CB BKN150 
     FM230200 20004KT P6SM SCT080 BKN100 
     FM230600 21005KT P6SM SCT100